createdAt,value
2019-03-01T00:00:44.402Z,95541
2019-03-01T00:01:53.915Z,95536
2019-03-01T00:03:03.413Z,95538
2019-03-01T00:04:12.919Z,95538
2019-03-01T00:05:22.429Z,95538
2019-03-01T00:06:31.962Z,95537
2019-03-01T00:07:41.464Z,95542
2019-03-01T00:08:50.970Z,95548
2019-03-01T00:10:00.479Z,95542
2019-03-01T00:11:09.982Z,95542
2019-03-01T00:12:19.502Z,95551
2019-03-01T00:13:29.009Z,95548
2019-03-01T00:14:38.499Z,95546
2019-03-01T00:15:48.000Z,95554
2019-03-01T00:16:57.521Z,95543
2019-03-01T00:18:07.022Z,95544
2019-03-01T00:19:16.526Z,95543
2019-03-01T00:20:26.033Z,95540
2019-03-01T00:21:35.533Z,95541
2019-03-01T00:22:45.076Z,95543
2019-03-01T00:23:54.565Z,95550
2019-03-01T00:25:04.073Z,95551
2019-03-01T00:26:13.569Z,95558
2019-03-01T00:27:23.084Z,95547
2019-03-01T00:28:32.585Z,95551
2019-03-01T00:29:42.083Z,95555
2019-03-01T00:30:51.587Z,95545
2019-03-01T00:32:01.107Z,95549
2019-03-01T00:33:10.611Z,95552
2019-03-01T00:34:20.121Z,95551
2019-03-01T00:35:29.620Z,95549
2019-03-01T00:36:39.109Z,95540
2019-03-01T00:37:48.627Z,95542
2019-03-01T00:38:58.129Z,95547
2019-03-01T00:40:07.631Z,95537
2019-03-01T00:41:17.140Z,95535
2019-03-01T00:42:26.658Z,95534
2019-03-01T00:43:36.173Z,95530
2019-03-01T00:44:47.013Z,95544
2019-03-01T00:45:55.168Z,95536
2019-03-01T00:47:04.692Z,95532
2019-03-01T00:48:14.198Z,95543
2019-03-01T00:49:23.704Z,95532
2019-03-01T00:50:33.220Z,95527
2019-03-01T00:51:42.726Z,95534
2019-03-01T00:52:52.230Z,95526
2019-03-01T00:54:01.740Z,95523
2019-03-01T00:55:11.233Z,95529
2019-03-01T00:56:20.753Z,95533
2019-03-01T00:57:30.253Z,95523
2019-03-01T00:58:39.760Z,95523
2019-03-01T00:59:49.254Z,95517
2019-03-01T01:00:58.782Z,95519
2019-03-01T01:02:08.285Z,95506
2019-03-01T01:03:17.803Z,95511
2019-03-01T01:04:27.321Z,95515
2019-03-01T01:05:36.823Z,95520
2019-03-01T01:06:46.338Z,95509
2019-03-01T01:07:55.841Z,95515
2019-03-01T01:09:05.385Z,95511
2019-03-01T01:10:14.901Z,95519
2019-03-01T01:11:24.414Z,95517
2019-03-01T01:12:33.921Z,95520
2019-03-01T01:13:43.433Z,95514
2019-03-01T01:14:52.937Z,95532
2019-03-01T01:16:02.453Z,95509
2019-03-01T01:17:11.964Z,95509
2019-03-01T01:18:21.475Z,95507
2019-03-01T01:19:30.990Z,95541
2019-03-01T01:20:40.495Z,95507
2019-03-01T01:21:49.997Z,95495
2019-03-01T01:22:59.505Z,95496
2019-03-01T01:24:09.022Z,95509
2019-03-01T01:25:18.522Z,95509
2019-03-01T01:26:28.023Z,95496
2019-03-01T01:27:37.531Z,95498
2019-03-01T01:28:47.046Z,95483
2019-03-01T01:29:56.548Z,95490
2019-03-01T01:31:06.051Z,95483
2019-03-01T01:32:15.567Z,95490
2019-03-01T01:33:25.079Z,95486
2019-03-01T01:34:34.553Z,95474
2019-03-01T01:35:44.055Z,95476
2019-03-01T01:36:53.574Z,95473
2019-03-01T01:38:03.069Z,95467
2019-03-01T01:39:12.577Z,95480
2019-03-01T01:40:22.078Z,95469
2019-03-01T01:41:31.614Z,95469
2019-03-01T01:42:41.113Z,95484
2019-03-01T01:43:50.624Z,95463
2019-03-01T01:45:00.337Z,95472
2019-03-01T01:46:09.652Z,95465
2019-03-01T01:47:19.172Z,95472
2019-03-01T01:48:28.670Z,95471
2019-03-01T01:49:38.165Z,95470
2019-03-01T01:50:47.660Z,95460
2019-03-01T01:51:57.174Z,95467
2019-03-01T01:53:06.687Z,95466
2019-03-01T01:54:16.187Z,95467
2019-03-01T01:55:25.689Z,95460
2019-03-01T01:56:35.203Z,95465
2019-03-01T01:57:44.705Z,95472
2019-03-01T01:58:54.208Z,95459
2019-03-01T02:00:03.708Z,95449
2019-03-01T02:01:13.205Z,95451
2019-03-01T02:02:22.735Z,95439
2019-03-01T02:03:32.247Z,95448
2019-03-01T02:04:41.753Z,95453
2019-03-01T02:05:51.265Z,95448
2019-03-01T02:07:00.792Z,95455
2019-03-01T02:08:10.290Z,95441
2019-03-01T02:09:19.796Z,95446
2019-03-01T02:10:29.331Z,95448
2019-03-01T02:11:38.844Z,95442
2019-03-01T02:12:48.377Z,95435
2019-03-01T02:13:57.879Z,95446
2019-03-01T02:15:07.378Z,95442
2019-03-01T02:16:16.874Z,95438
2019-03-01T02:17:26.401Z,95450
2019-03-01T02:18:35.903Z,95436
2019-03-01T02:19:45.458Z,95431
2019-03-01T02:20:54.999Z,95437
2019-03-01T02:22:04.515Z,95431
2019-03-01T02:23:14.019Z,95424
2019-03-01T02:24:23.521Z,95434
2019-03-01T02:25:33.023Z,95422
2019-03-01T02:26:42.533Z,95429
2019-03-01T02:27:52.051Z,95423
2019-03-01T02:29:01.542Z,95412
2019-03-01T02:30:11.045Z,95427
2019-03-01T02:31:20.552Z,95408
2019-03-01T02:32:30.062Z,95397
2019-03-01T02:33:39.644Z,95402
2019-03-01T02:34:49.074Z,95395
2019-03-01T02:35:58.581Z,95399
2019-03-01T02:37:08.086Z,95403
2019-03-01T02:38:17.602Z,95399
2019-03-01T02:39:27.100Z,95398
2019-03-01T02:40:36.605Z,95393
2019-03-01T02:41:46.103Z,95396
2019-03-01T02:42:55.629Z,95390
2019-03-01T02:44:05.122Z,95397
2019-03-01T02:45:14.623Z,95398
2019-03-01T02:46:24.119Z,95387
2019-03-01T02:47:33.652Z,95388
2019-03-01T02:48:43.157Z,95387
2019-03-01T02:49:52.677Z,95383
2019-03-01T02:51:02.179Z,95385
2019-03-01T02:52:11.691Z,95383
2019-03-01T02:53:21.216Z,95370
2019-03-01T02:54:30.718Z,95372
2019-03-01T02:55:40.222Z,95380
2019-03-01T02:56:49.726Z,95371
2019-03-01T02:57:59.231Z,95362
2019-03-01T02:59:08.734Z,95369
2019-03-01T03:00:18.237Z,95365
2019-03-01T03:01:27.750Z,95361
2019-03-01T03:02:37.260Z,95363
2019-03-01T03:03:46.832Z,95365
2019-03-01T03:04:56.334Z,95367
2019-03-01T03:06:05.865Z,95360
2019-03-01T03:07:15.385Z,95356
2019-03-01T03:08:24.909Z,95356
2019-03-01T03:09:34.440Z,95361
2019-03-01T03:10:43.945Z,95354
2019-03-01T03:11:53.444Z,95356
2019-03-01T03:13:02.977Z,95354
2019-03-01T03:14:12.472Z,95343
2019-03-01T03:15:21.978Z,95341
2019-03-01T03:16:31.479Z,95335
2019-03-01T03:17:40.986Z,95346
2019-03-01T03:18:50.506Z,95341
2019-03-01T03:20:00.038Z,95345
2019-03-01T03:21:09.546Z,95336
2019-03-01T03:22:19.037Z,95331
2019-03-01T03:23:28.581Z,95341
2019-03-01T03:24:38.089Z,95342
2019-03-01T03:25:48.606Z,95346
2019-03-01T03:26:58.121Z,95362
2019-03-01T03:28:07.639Z,95343
2019-03-01T03:29:17.150Z,95344
2019-03-01T03:30:26.665Z,95345
2019-03-01T03:31:36.161Z,95342
2019-03-01T03:32:45.665Z,95339
2019-03-01T03:33:55.185Z,95339
2019-03-01T03:35:04.684Z,95343
2019-03-01T03:36:14.189Z,95342
2019-03-01T03:37:23.695Z,95336
2019-03-01T03:38:33.206Z,95332
2019-03-01T03:39:42.711Z,95337
2019-03-01T03:40:53.211Z,95328
2019-03-01T03:42:02.710Z,95334
2019-03-01T03:43:12.236Z,95340
2019-03-01T03:44:21.738Z,95328
2019-03-01T03:45:31.238Z,95330
2019-03-01T03:46:40.749Z,95333
2019-03-01T03:47:50.284Z,95333
2019-03-01T03:48:59.786Z,95320
2019-03-01T03:50:09.291Z,95328
2019-03-01T03:51:18.795Z,95336
2019-03-01T03:52:28.299Z,95355
2019-03-01T03:53:37.847Z,95331
2019-03-01T03:54:47.339Z,95324
2019-03-01T03:55:56.838Z,95329
2019-03-01T03:57:06.345Z,95323
2019-03-01T03:58:15.880Z,95328
2019-03-01T03:59:25.382Z,95322
2019-03-01T04:00:34.886Z,95324
2019-03-01T04:01:44.390Z,95345
2019-03-01T04:02:53.903Z,95334
2019-03-01T04:04:03.489Z,95330
2019-03-01T04:05:12.995Z,95331
2019-03-01T04:06:22.506Z,95325
2019-03-01T04:07:32.011Z,95315
2019-03-01T04:08:41.522Z,95317
2019-03-01T04:09:51.033Z,95320
2019-03-01T04:11:00.538Z,95319
2019-03-01T04:12:10.044Z,95309
2019-03-01T04:13:19.558Z,95307
2019-03-01T04:14:29.058Z,95313
2019-03-01T04:15:38.574Z,95306
2019-03-01T04:16:48.135Z,95311
2019-03-01T04:17:57.634Z,95301
2019-03-01T04:19:07.194Z,95308
2019-03-01T04:20:16.701Z,95303
2019-03-01T04:21:26.200Z,95305
2019-03-01T04:22:35.706Z,95308
2019-03-01T04:23:45.229Z,95298
2019-03-01T04:24:54.740Z,95295
2019-03-01T04:26:04.235Z,95295
2019-03-01T04:27:13.734Z,95294
2019-03-01T04:28:23.243Z,95293
2019-03-01T04:29:32.759Z,95296
2019-03-01T04:30:42.275Z,95292
2019-03-01T04:31:51.784Z,95300
2019-03-01T04:33:01.284Z,95295
2019-03-01T04:34:10.802Z,95303
2019-03-01T04:35:20.302Z,95290
2019-03-01T04:36:29.808Z,95295
2019-03-01T04:37:39.314Z,95290
2019-03-01T04:38:48.832Z,95291
2019-03-01T04:39:58.352Z,95293
2019-03-01T04:41:07.861Z,95292
2019-03-01T04:42:17.389Z,95292
2019-03-01T04:43:26.918Z,95291
2019-03-01T04:44:36.444Z,95283
2019-03-01T04:45:45.951Z,95287
2019-03-01T04:46:55.462Z,95287
2019-03-01T04:48:04.982Z,95293
2019-03-01T04:49:15.501Z,95293
2019-03-01T04:50:25.034Z,95290
2019-03-01T04:51:39.993Z,95293
2019-03-01T04:52:44.043Z,95286
2019-03-01T04:53:53.566Z,95288
2019-03-01T04:55:03.072Z,95283
2019-03-01T04:56:12.576Z,95282
2019-03-01T04:57:22.086Z,95285
2019-03-01T04:58:31.607Z,95283
2019-03-01T04:59:41.117Z,95281
2019-03-01T05:00:50.616Z,95278
2019-03-01T05:02:00.131Z,95280
2019-03-01T05:03:09.646Z,95285
2019-03-01T05:04:19.148Z,95282
2019-03-01T05:05:28.654Z,95279
2019-03-01T05:06:38.167Z,95277
2019-03-01T05:07:47.700Z,95279
2019-03-01T05:08:57.208Z,95274
2019-03-01T05:10:06.718Z,95276
2019-03-01T05:11:16.230Z,95274
2019-03-01T05:12:25.747Z,95269
2019-03-01T05:13:35.246Z,95267
2019-03-01T05:14:44.762Z,95275
2019-03-01T05:15:54.273Z,95273
2019-03-01T05:17:03.810Z,95272
2019-03-01T05:18:13.518Z,95272
2019-03-01T05:19:22.919Z,95271
2019-03-01T05:20:32.439Z,95268
2019-03-01T05:21:41.962Z,95269
2019-03-01T05:22:51.471Z,95260
2019-03-01T05:24:00.977Z,95273
2019-03-01T05:25:10.486Z,95259
2019-03-01T05:26:19.987Z,95265
2019-03-01T05:27:29.504Z,95257
2019-03-01T05:28:39.005Z,95258
2019-03-01T05:29:48.511Z,95253
2019-03-01T05:30:58.012Z,95264
2019-03-01T05:32:07.546Z,95257
2019-03-01T05:33:17.195Z,95262
2019-03-01T05:34:26.721Z,95254
2019-03-01T05:35:36.216Z,95259
2019-03-01T05:36:45.753Z,95259
2019-03-01T05:37:55.280Z,95257
2019-03-01T05:39:04.783Z,95254
2019-03-01T05:40:14.295Z,95259
2019-03-01T05:41:23.802Z,95259
2019-03-01T05:42:33.324Z,95261
2019-03-01T05:43:42.829Z,95260
2019-03-01T05:44:52.338Z,95266
2019-03-01T05:46:02.847Z,95263
2019-03-01T05:47:12.391Z,95264
2019-03-01T05:48:21.899Z,95284
2019-03-01T05:49:31.403Z,95280
2019-03-01T05:50:40.936Z,95284
2019-03-01T05:51:50.528Z,95306
2019-03-01T05:53:00.062Z,95290
2019-03-01T05:54:09.566Z,95303
2019-03-01T05:55:19.075Z,95302
2019-03-01T05:56:28.573Z,95273
2019-03-01T05:57:38.094Z,95272
2019-03-01T05:58:47.600Z,95290
2019-03-01T05:59:57.107Z,95279
2019-03-01T06:01:06.613Z,95277
2019-03-01T06:02:16.136Z,95279
2019-03-01T06:03:25.637Z,95283
2019-03-01T06:04:35.154Z,95287
2019-03-01T06:05:44.658Z,95272
2019-03-01T06:06:54.165Z,95276
2019-03-01T06:08:03.698Z,95273
2019-03-01T06:09:13.202Z,95267
2019-03-01T06:10:22.704Z,95268
2019-03-01T06:11:32.211Z,95283
2019-03-01T06:12:41.741Z,95268
2019-03-01T06:13:51.241Z,95262
2019-03-01T06:15:00.741Z,95273
2019-03-01T06:16:10.247Z,95265
2019-03-01T06:17:19.769Z,95262
2019-03-01T06:18:29.278Z,95263
2019-03-01T06:19:38.795Z,95268
2019-03-01T06:20:48.304Z,95264
2019-03-01T06:21:57.817Z,95264
2019-03-01T06:23:07.339Z,95263
2019-03-01T06:24:16.859Z,95259
2019-03-01T06:25:26.370Z,95255
2019-03-01T06:26:35.873Z,95244
2019-03-01T06:27:45.391Z,95260
2019-03-01T06:28:54.938Z,95252
2019-03-01T06:30:05.446Z,95248
2019-03-01T06:31:14.964Z,95267
2019-03-01T06:32:24.482Z,95255
2019-03-01T06:33:34.005Z,95251
2019-03-01T06:34:43.519Z,95249
2019-03-01T06:35:53.033Z,95251
2019-03-01T06:37:02.532Z,95254
2019-03-01T06:38:12.051Z,95250
2019-03-01T06:39:21.576Z,95241
2019-03-01T06:40:31.121Z,95252
2019-03-01T06:41:40.607Z,95242
2019-03-01T06:42:50.141Z,95249
2019-03-01T06:43:59.642Z,95243
2019-03-01T06:45:09.159Z,95247
2019-03-01T06:46:18.669Z,95243
2019-03-01T06:47:28.196Z,95235
2019-03-01T06:48:37.711Z,95239
2019-03-01T06:49:47.218Z,95238
2019-03-01T06:50:56.727Z,95249
2019-03-01T06:52:06.228Z,95238
2019-03-01T06:53:15.746Z,95250
2019-03-01T06:54:25.266Z,95252
2019-03-01T06:55:34.767Z,95253
2019-03-01T06:56:44.273Z,95257
2019-03-01T06:57:53.800Z,95241
2019-03-01T06:59:03.305Z,95243
2019-03-01T07:00:12.800Z,95246
2019-03-01T07:01:22.311Z,95250
2019-03-01T07:02:31.829Z,95244
2019-03-01T07:03:41.336Z,95256
2019-03-01T07:04:50.843Z,95251
2019-03-01T07:06:03.260Z,95237
2019-03-01T07:07:09.866Z,95244
2019-03-01T07:08:19.391Z,95244
2019-03-01T07:09:28.900Z,95252
2019-03-01T07:10:38.409Z,95230
2019-03-01T07:11:47.938Z,95250
2019-03-01T07:12:57.457Z,95236
2019-03-01T07:14:06.974Z,95236
2019-03-01T07:15:16.487Z,95239
2019-03-01T07:16:25.990Z,95250
2019-03-01T07:17:35.502Z,95239
2019-03-01T07:18:45.043Z,95254
2019-03-01T07:19:54.548Z,95245
2019-03-01T07:21:04.059Z,95252
2019-03-01T07:22:13.561Z,95247
2019-03-01T07:23:23.078Z,95247
2019-03-01T07:24:33.571Z,95243
2019-03-01T07:25:43.071Z,95239
2019-03-01T07:26:52.566Z,95245
2019-03-01T07:28:02.085Z,95254
2019-03-01T07:29:11.602Z,95254
2019-03-01T07:30:21.105Z,95253
2019-03-01T07:31:30.614Z,95255
2019-03-01T07:32:40.137Z,95252
2019-03-01T07:33:49.654Z,95243
2019-03-01T07:34:59.152Z,95247
2019-03-01T07:36:08.661Z,95246
2019-03-01T07:37:18.172Z,95235
2019-03-01T07:38:27.683Z,95239
2019-03-01T07:39:37.188Z,95256
2019-03-01T07:40:46.694Z,95251
2019-03-01T07:41:56.240Z,95244
2019-03-01T07:43:07.633Z,95248
2019-03-01T07:44:15.252Z,95252
2019-03-01T07:45:24.785Z,95248
2019-03-01T07:46:34.298Z,95242
2019-03-01T07:47:43.797Z,95245
2019-03-01T07:48:53.327Z,95241
2019-03-01T07:50:02.830Z,95235
2019-03-01T07:51:12.337Z,95238
2019-03-01T07:52:21.887Z,95236
2019-03-01T07:53:31.452Z,95241
2019-03-01T07:54:42.034Z,95241
2019-03-01T07:55:52.579Z,95233
2019-03-01T07:57:03.102Z,95235
2019-03-01T07:58:13.681Z,95231
2019-03-01T07:59:24.260Z,95234
2019-03-01T08:00:34.824Z,95244
2019-03-01T08:01:44.421Z,95242
2019-03-01T08:02:53.987Z,95235
2019-03-01T08:04:03.588Z,95244
2019-03-01T08:05:16.075Z,95245
2019-03-01T08:06:22.749Z,95247
2019-03-01T08:07:32.413Z,95238
2019-03-01T08:08:42.059Z,95238
2019-03-01T08:09:51.710Z,95238
2019-03-01T08:11:01.302Z,95259
2019-03-01T08:12:10.886Z,95254
2019-03-01T08:13:20.505Z,95252
2019-03-01T08:14:31.456Z,95246
2019-03-01T08:15:40.655Z,95244
2019-03-01T08:16:52.540Z,95273
2019-03-01T08:18:00.550Z,95247
2019-03-01T08:19:10.385Z,95258
2019-03-01T08:20:20.928Z,95245
2019-03-01T08:21:31.473Z,95243
2019-03-01T08:22:48.328Z,95246
2019-03-01T08:23:51.639Z,95244
2019-03-01T08:25:01.205Z,95246
2019-03-01T08:26:10.760Z,95254
2019-03-01T08:27:20.341Z,95269
2019-03-01T08:28:29.919Z,95267
2019-03-01T08:29:40.500Z,95256
2019-03-01T08:30:49.099Z,95250
2019-03-01T08:31:59.640Z,95257
2019-03-01T08:33:09.229Z,95245
2019-03-01T08:34:18.942Z,95258
2019-03-01T08:35:31.943Z,95248
2019-03-01T08:36:38.530Z,95256
2019-03-01T08:37:49.721Z,95258
2019-03-01T08:39:00.695Z,95243
2019-03-01T08:40:07.726Z,95248
2019-03-01T08:41:21.429Z,95264
2019-03-01T08:42:28.791Z,95259
2019-03-01T08:43:39.345Z,95264
2019-03-01T08:44:49.921Z,95263
2019-03-01T08:46:00.491Z,95270
2019-03-01T08:47:11.027Z,95263
2019-03-01T08:48:21.588Z,95254
2019-03-01T08:49:32.180Z,95242
2019-03-01T08:50:41.747Z,95270
2019-03-01T08:51:51.326Z,95261
2019-03-01T08:53:01.899Z,95261
2019-03-01T08:54:12.499Z,95254
2019-03-01T08:55:22.068Z,95265
2019-03-01T08:56:31.647Z,95264
2019-03-01T08:57:44.157Z,95272
2019-03-01T08:58:50.783Z,95263
2019-03-01T09:00:00.381Z,95258
2019-03-01T09:01:09.958Z,95260
2019-03-01T09:02:19.519Z,95253
2019-03-01T09:03:29.083Z,95251
2019-03-01T09:04:38.658Z,95250
2019-03-01T09:05:49.226Z,95267
2019-03-01T09:06:58.801Z,95247
2019-03-01T09:08:08.379Z,95247
2019-03-01T09:09:20.884Z,95251
2019-03-01T09:10:28.993Z,95247
2019-03-01T09:11:37.071Z,95238
2019-03-01T09:12:47.612Z,95235
2019-03-01T09:13:57.244Z,95237
2019-03-01T09:15:07.269Z,95240
2019-03-01T09:16:16.414Z,95237
2019-03-01T09:17:25.982Z,95243
2019-03-01T09:18:35.529Z,95234
2019-03-01T09:19:45.049Z,95234
2019-03-01T09:21:04.228Z,95230
2019-03-01T09:22:05.139Z,95231
2019-03-01T09:23:22.750Z,95236
2019-03-01T09:24:25.589Z,95231
2019-03-01T09:25:34.624Z,95234
2019-03-01T09:26:45.118Z,95230
2019-03-01T09:27:54.621Z,95233
2019-03-01T09:29:04.121Z,95235
2019-03-01T09:30:14.647Z,95231
2019-03-01T09:31:24.153Z,95222
2019-03-01T09:32:34.633Z,95217
2019-03-01T09:33:43.172Z,95227
2019-03-01T09:34:52.688Z,95235
2019-03-01T09:36:02.222Z,95230
2019-03-01T09:37:11.731Z,95219
2019-03-01T09:38:21.264Z,95217
2019-03-01T09:39:32.565Z,95226
2019-03-01T09:40:40.276Z,95224
2019-03-01T09:41:49.781Z,95221
2019-03-01T09:43:00.981Z,95228
2019-03-01T09:44:09.785Z,95222
2019-03-01T09:45:19.441Z,95220
2019-03-01T09:46:28.809Z,95226
2019-03-01T09:47:38.307Z,95219
2019-03-01T09:48:49.367Z,95223
2019-03-01T09:49:59.957Z,95222
2019-03-01T09:51:07.150Z,95212
2019-03-01T09:52:16.320Z,95215
2019-03-01T09:53:26.806Z,95218
2019-03-01T09:54:37.300Z,95213
2019-03-01T09:55:46.810Z,95221
2019-03-01T09:56:56.328Z,95203
2019-03-01T09:58:05.834Z,95206
2019-03-01T09:59:15.342Z,95208
2019-03-01T10:00:24.871Z,95211
2019-03-01T10:01:34.374Z,95212
2019-03-01T10:02:43.883Z,95205
2019-03-01T10:03:53.389Z,95198
2019-03-01T10:05:02.912Z,95192
2019-03-01T10:06:12.427Z,95203
2019-03-01T10:07:21.981Z,95193
2019-03-01T10:08:31.531Z,95193
2019-03-01T10:09:41.139Z,95194
2019-03-01T10:10:50.728Z,95195
2019-03-01T10:12:00.296Z,95201
2019-03-01T10:13:09.859Z,95199
2019-03-01T10:14:20.271Z,95200
2019-03-01T10:15:29.050Z,95201
2019-03-01T10:16:38.632Z,95204
2019-03-01T10:17:48.209Z,95194
2019-03-01T10:18:57.813Z,95201
2019-03-01T10:20:08.433Z,95201
2019-03-01T10:21:17.977Z,95201
2019-03-01T10:22:27.481Z,95207
2019-03-01T10:23:36.993Z,95209
2019-03-01T10:24:46.502Z,95223
2019-03-01T10:25:56.017Z,95204
2019-03-01T10:27:05.530Z,95209
2019-03-01T10:28:15.038Z,95204
2019-03-01T10:29:24.548Z,95202
2019-03-01T10:30:34.085Z,95210
2019-03-01T10:31:43.594Z,95209
2019-03-01T10:32:53.093Z,95201
2019-03-01T10:34:02.597Z,95221
2019-03-01T10:35:12.130Z,95210
2019-03-01T10:36:21.626Z,95208
2019-03-01T10:37:31.125Z,95211
2019-03-01T10:38:40.634Z,95211
2019-03-01T10:39:55.190Z,95212
2019-03-01T10:40:59.629Z,95208
2019-03-01T10:42:09.145Z,95207
2019-03-01T10:43:18.659Z,95210
2019-03-01T10:44:28.168Z,95215
2019-03-01T10:45:37.743Z,95214
2019-03-01T10:46:47.238Z,95203
2019-03-01T10:47:56.736Z,95210
2019-03-01T10:49:06.247Z,95211
2019-03-01T10:50:15.764Z,95210
2019-03-01T10:51:25.295Z,95208
2019-03-01T10:52:34.816Z,95214
2019-03-01T10:53:44.316Z,95221
2019-03-01T10:54:53.814Z,95220
2019-03-01T10:56:03.334Z,95212
2019-03-01T10:57:12.847Z,95213
2019-03-01T10:58:22.351Z,95230
2019-03-01T10:59:31.857Z,95209
2019-03-01T11:00:41.380Z,95223
2019-03-01T11:01:50.905Z,95209
2019-03-01T11:03:01.396Z,95212
2019-03-01T11:04:10.895Z,95203
2019-03-01T11:05:20.398Z,95220
2019-03-01T11:06:29.914Z,95196
2019-03-01T11:07:39.421Z,95195
2019-03-01T11:08:48.919Z,95208
2019-03-01T11:09:58.462Z,95202
2019-03-01T11:11:07.985Z,95206
2019-03-01T11:12:17.488Z,95204
2019-03-01T11:13:26.987Z,95202
2019-03-01T11:14:36.491Z,95202
2019-03-01T11:15:46.011Z,95182
2019-03-01T11:16:55.506Z,95204
2019-03-01T11:18:05.021Z,95205
2019-03-01T11:19:14.540Z,95196
2019-03-01T11:20:24.053Z,95188
2019-03-01T11:21:33.572Z,95201
2019-03-01T11:22:43.078Z,95193
2019-03-01T11:23:52.578Z,95199
2019-03-01T11:25:02.077Z,95192
2019-03-01T11:26:11.596Z,95201
2019-03-01T11:27:21.102Z,95195
2019-03-01T11:28:30.601Z,95198
2019-03-01T11:29:40.190Z,95190
2019-03-01T11:30:49.700Z,95213
2019-03-01T11:31:59.205Z,95200
2019-03-01T11:33:08.709Z,95183
2019-03-01T11:34:18.217Z,95187
2019-03-01T11:35:27.729Z,95189
2019-03-01T11:36:37.245Z,95197
2019-03-01T11:37:46.753Z,95217
2019-03-01T11:38:56.255Z,95198
2019-03-01T11:40:05.768Z,95195
2019-03-01T11:41:15.286Z,95198
2019-03-01T11:42:24.795Z,95192
2019-03-01T11:43:34.303Z,95183
2019-03-01T11:44:43.791Z,95196
2019-03-01T11:45:53.313Z,95193
2019-03-01T11:47:03.823Z,95190
2019-03-01T11:48:13.520Z,95200
2019-03-01T11:49:23.006Z,95199
2019-03-01T11:50:32.511Z,95200
2019-03-01T11:51:42.022Z,95219
2019-03-01T11:52:51.527Z,95204
2019-03-01T11:54:01.034Z,95209
2019-03-01T11:55:10.534Z,95204
2019-03-01T11:56:20.053Z,95196
2019-03-01T11:57:29.555Z,95195
2019-03-01T11:58:39.067Z,95200
2019-03-01T11:59:48.578Z,95198
2019-03-01T12:00:58.078Z,95210
2019-03-01T12:02:07.600Z,95203
2019-03-01T12:03:17.112Z,95229
2019-03-01T12:04:26.614Z,95211
2019-03-01T12:05:36.115Z,95217
2019-03-01T12:06:45.629Z,95205
2019-03-01T12:07:55.130Z,95226
2019-03-01T12:09:04.636Z,95210
2019-03-01T12:10:14.147Z,95219
2019-03-01T12:11:23.668Z,95214
2019-03-01T12:12:33.170Z,95235
2019-03-01T12:13:42.678Z,95215
2019-03-01T12:14:52.190Z,95212
2019-03-01T12:16:01.708Z,95225
2019-03-01T12:17:11.223Z,95213
2019-03-01T12:18:20.725Z,95213
2019-03-01T12:19:30.230Z,95200
2019-03-01T12:20:39.732Z,95213
2019-03-01T12:21:49.253Z,95214
2019-03-01T12:22:58.758Z,95209
2019-03-01T12:24:08.264Z,95212
2019-03-01T12:25:17.770Z,95215
2019-03-01T12:26:27.291Z,95211
2019-03-01T12:27:36.794Z,95206
2019-03-01T12:28:46.285Z,95202
2019-03-01T12:29:55.790Z,95206
2019-03-01T12:31:05.295Z,95207
2019-03-01T12:32:14.809Z,95212
2019-03-01T12:33:24.309Z,95223
2019-03-01T12:34:33.817Z,95232
2019-03-01T12:35:43.320Z,95232
2019-03-01T12:36:52.846Z,95214
2019-03-01T12:38:02.349Z,95209
2019-03-01T12:39:11.854Z,95201
2019-03-01T12:40:21.362Z,95208
2019-03-01T12:41:30.878Z,95213
2019-03-01T12:42:41.385Z,95205
2019-03-01T12:43:50.892Z,95202
2019-03-01T12:45:00.420Z,95208
2019-03-01T12:46:09.923Z,95215
2019-03-01T12:47:20.441Z,95210
2019-03-01T12:48:29.956Z,95212
2019-03-01T12:49:39.457Z,95221
2019-03-01T12:50:48.970Z,95213
2019-03-01T12:51:58.496Z,95208
2019-03-01T12:53:08.004Z,95203
2019-03-01T12:54:17.503Z,95210
2019-03-01T12:55:27.011Z,95223
2019-03-01T12:56:36.528Z,95206
2019-03-01T12:57:46.046Z,95210
2019-03-01T12:58:55.544Z,95208
2019-03-01T13:00:05.058Z,95205
2019-03-01T13:01:14.546Z,95215
2019-03-01T13:02:24.083Z,95214
2019-03-01T13:03:33.601Z,95206
2019-03-01T13:04:43.101Z,95211
2019-03-01T13:05:53.616Z,95214
2019-03-01T13:07:03.156Z,95207
2019-03-01T13:08:15.733Z,95210
2019-03-01T13:09:23.391Z,95213
2019-03-01T13:10:32.652Z,95228
2019-03-01T13:11:43.178Z,95213
2019-03-01T13:12:54.637Z,95215
2019-03-01T13:14:04.136Z,95219
2019-03-01T13:15:14.513Z,95219
2019-03-01T13:16:23.388Z,95212
2019-03-01T13:17:33.651Z,95223
2019-03-01T13:18:42.144Z,95224
2019-03-01T13:19:52.640Z,95218
2019-03-01T13:21:03.132Z,95231
2019-03-01T13:22:12.646Z,95217
2019-03-01T13:23:22.160Z,95216
2019-03-01T13:24:31.659Z,95219
2019-03-01T13:25:41.160Z,95208
2019-03-01T13:26:50.688Z,95208
2019-03-01T13:28:00.191Z,95209
2019-03-01T13:29:09.696Z,95215
2019-03-01T13:30:20.198Z,95211
2019-03-01T13:31:29.715Z,95225
2019-03-01T13:32:39.257Z,95230
2019-03-01T13:33:48.775Z,95220
2019-03-01T13:34:58.288Z,95207
2019-03-01T13:36:07.792Z,95244
2019-03-01T13:37:20.081Z,95223
2019-03-01T13:38:26.832Z,95231
2019-03-01T13:39:37.336Z,95219
2019-03-01T13:40:47.850Z,95214
2019-03-01T13:41:57.393Z,95213
2019-03-01T13:43:06.898Z,95224
2019-03-01T13:44:16.411Z,95244
2019-03-01T13:45:25.928Z,95227
2019-03-01T13:46:35.434Z,95200
2019-03-01T13:47:44.962Z,95207
2019-03-01T13:48:54.953Z,95211
2019-03-01T13:50:06.664Z,95218
2019-03-01T13:51:13.805Z,95213
2019-03-01T13:52:22.999Z,95209
2019-03-01T13:53:34.273Z,95215
2019-03-01T13:54:45.395Z,95216
2019-03-01T13:55:56.349Z,95203
2019-03-01T13:57:04.076Z,95218
2019-03-01T13:58:14.569Z,95223
2019-03-01T13:59:25.059Z,95211
2019-03-01T14:00:34.573Z,95214
2019-03-01T14:01:44.092Z,95206
2019-03-01T14:02:53.617Z,95215
2019-03-01T14:04:03.421Z,95216
2019-03-01T14:05:13.214Z,95221
2019-03-01T14:06:22.142Z,95216
2019-03-01T14:07:31.714Z,95217
2019-03-01T14:08:41.250Z,95220
2019-03-01T14:09:50.766Z,95214
2019-03-01T14:11:00.283Z,95213
2019-03-01T14:12:09.853Z,95218
2019-03-01T14:13:19.364Z,95222
2019-03-01T14:14:28.899Z,95218
2019-03-01T14:15:39.823Z,95223
2019-03-01T14:16:47.902Z,95225
2019-03-01T14:18:00.359Z,95257
2019-03-01T14:19:06.955Z,95229
2019-03-01T14:20:20.283Z,95235
2019-03-01T14:21:25.964Z,95224
2019-03-01T14:22:36.462Z,95221
2019-03-01T14:23:46.977Z,95215
2019-03-01T14:24:56.478Z,95220
2019-03-01T14:26:06.985Z,95220
2019-03-01T14:27:17.497Z,95222
2019-03-01T14:28:27.994Z,95225
2019-03-01T14:29:37.517Z,95225
2019-03-01T14:30:47.043Z,95229
2019-03-01T14:31:56.565Z,95225
2019-03-01T14:33:06.115Z,95233
2019-03-01T14:34:15.635Z,95217
2019-03-01T14:35:26.785Z,95216
2019-03-01T14:36:34.698Z,95221
2019-03-01T14:37:45.216Z,95231
2019-03-01T14:38:55.714Z,95243
2019-03-01T14:40:06.216Z,95235
2019-03-01T14:41:15.735Z,95243
2019-03-01T14:42:25.268Z,95236
2019-03-01T14:43:34.777Z,95232
2019-03-01T14:44:44.296Z,95233
2019-03-01T14:45:53.811Z,95229
2019-03-01T14:47:03.344Z,95227
2019-03-01T14:48:12.866Z,95225
2019-03-01T14:49:22.725Z,95232
2019-03-01T14:50:33.548Z,95231
2019-03-01T14:51:46.435Z,95230
2019-03-01T14:52:56.567Z,95230
2019-03-01T14:54:01.389Z,95227
2019-03-01T14:55:11.885Z,95239
2019-03-01T14:56:22.397Z,95233